sensor_id;sensor_type;location;lat;lon;timestamp;P1;durP1;ratioP1;P2;durP2;ratioP2
35442;SDS011;21561;55.654;37.592;2023-12-22T00:02:24;15.32;;;5.38;;
35442;SDS011;21561;55.654;37.592;2023-12-22T00:04:52;16.60;;;5.65;;
35442;SDS011;21561;55.654;37.592;2023-12-22T00:07:19;15.63;;;5.60;;
35442;SDS011;21561;55.654;37.592;2023-12-22T00:09:47;15.63;;;5.18;;
35442;SDS011;21561;55.654;37.592;2023-12-22T00:12:14;16.23;;;5.03;;
35442;SDS011;21561;55.654;37.592;2023-12-22T00:14:41;14.95;;;5.30;;
35442;SDS011;21561;55.654;37.592;2023-12-22T00:17:08;13.23;;;4.60;;
35442;SDS011;21561;55.654;37.592;2023-12-22T00:19:35;15.20;;;4.95;;
35442;SDS011;21561;55.654;37.592;2023-12-22T00:22:03;16.88;;;5.50;;
35442;SDS011;21561;55.654;37.592;2023-12-22T00:24:30;15.13;;;5.03;;
35442;SDS011;21561;55.654;37.592;2023-12-22T00:26:57;16.15;;;5.50;;
35442;SDS011;21561;55.654;37.592;2023-12-22T00:29:24;16.67;;;5.25;;
35442;SDS011;21561;55.654;37.592;2023-12-22T00:31:51;15.70;;;5.00;;
35442;SDS011;21561;55.654;37.592;2023-12-22T00:34:18;16.42;;;5.30;;
35442;SDS011;21561;55.654;37.592;2023-12-22T00:36:46;15.40;;;5.45;;
35442;SDS011;21561;55.654;37.592;2023-12-22T00:39:13;16.58;;;5.65;;
35442;SDS011;21561;55.654;37.592;2023-12-22T00:41:40;15.95;;;5.72;;
35442;SDS011;21561;55.654;37.592;2023-12-22T00:44:07;16.23;;;5.65;;
35442;SDS011;21561;55.654;37.592;2023-12-22T00:46:34;15.10;;;5.43;;
35442;SDS011;21561;55.654;37.592;2023-12-22T00:49:01;18.17;;;6.30;;
35442;SDS011;21561;55.654;37.592;2023-12-22T00:51:28;17.58;;;6.18;;
35442;SDS011;21561;55.654;37.592;2023-12-22T00:53:55;18.58;;;6.05;;
35442;SDS011;21561;55.654;37.592;2023-12-22T00:56:22;20.10;;;6.43;;
35442;SDS011;21561;55.654;37.592;2023-12-22T00:58:48;17.27;;;6.03;;
35442;SDS011;21561;55.654;37.592;2023-12-22T01:01:27;17.50;;;6.03;;
35442;SDS011;21561;55.654;37.592;2023-12-22T01:03:54;18.77;;;6.95;;
35442;SDS011;21561;55.654;37.592;2023-12-22T01:06:21;21.52;;;6.88;;
35442;SDS011;21561;55.654;37.592;2023-12-22T01:08:53;22.70;;;7.43;;
35442;SDS011;21561;55.654;37.592;2023-12-22T01:11:20;20.48;;;7.13;;
35442;SDS011;21561;55.654;37.592;2023-12-22T01:13:46;21.65;;;8.05;;
35442;SDS011;21561;55.654;37.592;2023-12-22T01:16:14;24.95;;;8.20;;
35442;SDS011;21561;55.654;37.592;2023-12-22T01:18:42;21.38;;;7.40;;
35442;SDS011;21561;55.654;37.592;2023-12-22T01:21:11;25.60;;;8.27;;
35442;SDS011;21561;55.654;37.592;2023-12-22T01:23:38;26.63;;;7.68;;
35442;SDS011;21561;55.654;37.592;2023-12-22T01:26:05;29.80;;;10.30;;
35442;SDS011;21561;55.654;37.592;2023-12-22T01:28:33;24.23;;;7.43;;
35442;SDS011;21561;55.654;37.592;2023-12-22T01:31:01;23.40;;;7.57;;
35442;SDS011;21561;55.654;37.592;2023-12-22T01:33:29;22.45;;;8.43;;
35442;SDS011;21561;55.654;37.592;2023-12-22T01:35:56;24.23;;;8.25;;
35442;SDS011;21561;55.654;37.592;2023-12-22T01:38:23;24.10;;;8.02;;
35442;SDS011;21561;55.654;37.592;2023-12-22T01:40:50;22.70;;;7.60;;
35442;SDS011;21561;55.654;37.592;2023-12-22T01:43:17;19.92;;;7.05;;
35442;SDS011;21561;55.654;37.592;2023-12-22T01:45:52;18.42;;;6.53;;
35442;SDS011;21561;55.654;37.592;2023-12-22T01:48:23;18.58;;;6.40;;
35442;SDS011;21561;55.654;37.592;2023-12-22T01:50:51;19.10;;;6.90;;
35442;SDS011;21561;55.654;37.592;2023-12-22T01:53:20;16.98;;;6.50;;
35442;SDS011;21561;55.654;37.592;2023-12-22T01:55:48;17.30;;;6.45;;
35442;SDS011;21561;55.654;37.592;2023-12-22T01:58:17;17.17;;;6.13;;
35442;SDS011;21561;55.654;37.592;2023-12-22T02:00:49;19.60;;;6.88;;
35442;SDS011;21561;55.654;37.592;2023-12-22T02:03:19;16.30;;;6.03;;
35442;SDS011;21561;55.654;37.592;2023-12-22T02:05:47;16.35;;;5.85;;
35442;SDS011;21561;55.654;37.592;2023-12-22T02:08:15;18.63;;;6.05;;
35442;SDS011;21561;55.654;37.592;2023-12-22T02:10:45;15.75;;;5.72;;
35442;SDS011;21561;55.654;37.592;2023-12-22T02:13:15;16.15;;;5.88;;
35442;SDS011;21561;55.654;37.592;2023-12-22T02:15:42;16.05;;;5.70;;
35442;SDS011;21561;55.654;37.592;2023-12-22T02:18:21;19.33;;;5.97;;
35442;SDS011;21561;55.654;37.592;2023-12-22T02:20:52;18.63;;;5.57;;
35442;SDS011;21561;55.654;37.592;2023-12-22T02:23:20;17.77;;;6.45;;
35442;SDS011;21561;55.654;37.592;2023-12-22T02:25:47;19.15;;;6.55;;
35442;SDS011;21561;55.654;37.592;2023-12-22T02:28:19;18.00;;;6.25;;
35442;SDS011;21561;55.654;37.592;2023-12-22T02:30:57;17.67;;;6.35;;
35442;SDS011;21561;55.654;37.592;2023-12-22T02:33:27;18.92;;;6.68;;
35442;SDS011;21561;55.654;37.592;2023-12-22T02:35:58;16.88;;;5.63;;
35442;SDS011;21561;55.654;37.592;2023-12-22T02:38:30;17.45;;;5.97;;
35442;SDS011;21561;55.654;37.592;2023-12-22T02:40:58;16.77;;;6.53;;
35442;SDS011;21561;55.654;37.592;2023-12-22T02:43:25;23.13;;;6.43;;
35442;SDS011;21561;55.654;37.592;2023-12-22T02:45:53;16.58;;;5.95;;
35442;SDS011;21561;55.654;37.592;2023-12-22T02:48:20;19.98;;;6.60;;
35442;SDS011;21561;55.654;37.592;2023-12-22T02:50:47;17.95;;;6.53;;
35442;SDS011;21561;55.654;37.592;2023-12-22T02:53:14;16.05;;;6.10;;
35442;SDS011;21561;55.654;37.592;2023-12-22T02:55:41;16.55;;;6.20;;
35442;SDS011;21561;55.654;37.592;2023-12-22T02:58:08;17.15;;;6.78;;
35442;SDS011;21561;55.654;37.592;2023-12-22T03:00:35;18.20;;;6.40;;
35442;SDS011;21561;55.654;37.592;2023-12-22T03:03:02;15.68;;;6.22;;
35442;SDS011;21561;55.654;37.592;2023-12-22T03:05:29;17.30;;;6.60;;
35442;SDS011;21561;55.654;37.592;2023-12-22T03:07:56;20.25;;;7.05;;
35442;SDS011;21561;55.654;37.592;2023-12-22T03:10:23;18.00;;;6.95;;
35442;SDS011;21561;55.654;37.592;2023-12-22T03:12:50;19.10;;;6.53;;
35442;SDS011;21561;55.654;37.592;2023-12-22T03:15:17;18.60;;;7.65;;
35442;SDS011;21561;55.654;37.592;2023-12-22T03:17:44;18.60;;;6.90;;
35442;SDS011;21561;55.654;37.592;2023-12-22T03:20:11;16.52;;;6.85;;
35442;SDS011;21561;55.654;37.592;2023-12-22T03:22:38;19.08;;;6.38;;
35442;SDS011;21561;55.654;37.592;2023-12-22T03:25:05;17.55;;;7.13;;
35442;SDS011;21561;55.654;37.592;2023-12-22T03:27:32;16.75;;;6.78;;
35442;SDS011;21561;55.654;37.592;2023-12-22T03:29:59;19.90;;;7.38;;
35442;SDS011;21561;55.654;37.592;2023-12-22T03:32:32;17.42;;;7.15;;
35442;SDS011;21561;55.654;37.592;2023-12-22T03:34:59;17.88;;;7.30;;
35442;SDS011;21561;55.654;37.592;2023-12-22T03:37:26;18.63;;;7.63;;
35442;SDS011;21561;55.654;37.592;2023-12-22T03:39:53;17.10;;;7.18;;
35442;SDS011;21561;55.654;37.592;2023-12-22T03:42:20;19.63;;;7.00;;
35442;SDS011;21561;55.654;37.592;2023-12-22T03:44:47;18.70;;;6.43;;
35442;SDS011;21561;55.654;37.592;2023-12-22T03:47:14;19.02;;;7.20;;
35442;SDS011;21561;55.654;37.592;2023-12-22T03:49:41;19.33;;;7.13;;
35442;SDS011;21561;55.654;37.592;2023-12-22T03:52:09;18.80;;;7.60;;
35442;SDS011;21561;55.654;37.592;2023-12-22T03:54:37;17.17;;;7.03;;
35442;SDS011;21561;55.654;37.592;2023-12-22T03:57:04;16.98;;;6.13;;
35442;SDS011;21561;55.654;37.592;2023-12-22T03:59:31;18.80;;;7.20;;
35442;SDS011;21561;55.654;37.592;2023-12-22T04:01:57;19.25;;;7.10;;
35442;SDS011;21561;55.654;37.592;2023-12-22T04:04:27;18.20;;;7.35;;
35442;SDS011;21561;55.654;37.592;2023-12-22T04:06:54;17.60;;;6.57;;
35442;SDS011;21561;55.654;37.592;2023-12-22T04:09:22;17.92;;;7.05;;
35442;SDS011;21561;55.654;37.592;2023-12-22T04:11:49;20.40;;;7.53;;
35442;SDS011;21561;55.654;37.592;2023-12-22T04:14:15;18.50;;;7.13;;
35442;SDS011;21561;55.654;37.592;2023-12-22T04:16:44;17.67;;;6.80;;
35442;SDS011;21561;55.654;37.592;2023-12-22T04:19:12;18.98;;;6.90;;
35442;SDS011;21561;55.654;37.592;2023-12-22T04:21:39;18.13;;;7.10;;
35442;SDS011;21561;55.654;37.592;2023-12-22T04:24:06;17.27;;;6.45;;
35442;SDS011;21561;55.654;37.592;2023-12-22T04:26:33;16.98;;;6.50;;
35442;SDS011;21561;55.654;37.592;2023-12-22T04:29:00;19.02;;;7.22;;
35442;SDS011;21561;55.654;37.592;2023-12-22T04:31:27;18.00;;;7.15;;
35442;SDS011;21561;55.654;37.592;2023-12-22T04:33:54;16.92;;;6.82;;
35442;SDS011;21561;55.654;37.592;2023-12-22T04:36:22;17.48;;;7.22;;
35442;SDS011;21561;55.654;37.592;2023-12-22T04:38:49;18.98;;;7.43;;
35442;SDS011;21561;55.654;37.592;2023-12-22T04:41:16;16.77;;;6.85;;
35442;SDS011;21561;55.654;37.592;2023-12-22T04:43:47;17.38;;;6.82;;
35442;SDS011;21561;55.654;37.592;2023-12-22T04:46:14;19.65;;;7.40;;
35442;SDS011;21561;55.654;37.592;2023-12-22T04:48:40;20.00;;;7.80;;
35442;SDS011;21561;55.654;37.592;2023-12-22T04:51:08;18.25;;;7.00;;
35442;SDS011;21561;55.654;37.592;2023-12-22T04:53:35;19.35;;;7.72;;
35442;SDS011;21561;55.654;37.592;2023-12-22T04:56:03;18.77;;;7.72;;
35442;SDS011;21561;55.654;37.592;2023-12-22T04:58:35;18.63;;;7.65;;
35442;SDS011;21561;55.654;37.592;2023-12-22T05:01:02;19.50;;;8.50;;
35442;SDS011;21561;55.654;37.592;2023-12-22T05:03:29;19.98;;;8.73;;
35442;SDS011;21561;55.654;37.592;2023-12-22T05:05:56;22.33;;;9.40;;
35442;SDS011;21561;55.654;37.592;2023-12-22T05:08:23;20.38;;;8.63;;
35442;SDS011;21561;55.654;37.592;2023-12-22T05:10:50;20.10;;;8.50;;
35442;SDS011;21561;55.654;37.592;2023-12-22T05:13:17;21.23;;;8.52;;
35442;SDS011;21561;55.654;37.592;2023-12-22T05:15:44;20.65;;;8.00;;
35442;SDS011;21561;55.654;37.592;2023-12-22T05:18:11;20.48;;;8.45;;
35442;SDS011;21561;55.654;37.592;2023-12-22T05:20:39;20.67;;;8.85;;
35442;SDS011;21561;55.654;37.592;2023-12-22T05:23:06;19.67;;;8.65;;
35442;SDS011;21561;55.654;37.592;2023-12-22T05:25:33;23.00;;;9.73;;
35442;SDS011;21561;55.654;37.592;2023-12-22T05:28:00;22.30;;;9.50;;
35442;SDS011;21561;55.654;37.592;2023-12-22T05:30:27;21.48;;;9.30;;
35442;SDS011;21561;55.654;37.592;2023-12-22T05:32:54;23.63;;;10.05;;
35442;SDS011;21561;55.654;37.592;2023-12-22T05:35:21;22.27;;;9.55;;
35442;SDS011;21561;55.654;37.592;2023-12-22T05:37:48;24.23;;;10.27;;
35442;SDS011;21561;55.654;37.592;2023-12-22T05:40:16;23.92;;;10.43;;
35442;SDS011;21561;55.654;37.592;2023-12-22T05:42:43;25.17;;;11.05;;
35442;SDS011;21561;55.654;37.592;2023-12-22T05:45:10;24.70;;;11.25;;
35442;SDS011;21561;55.654;37.592;2023-12-22T05:47:37;22.83;;;10.43;;
35442;SDS011;21561;55.654;37.592;2023-12-22T05:50:05;25.05;;;11.32;;
35442;SDS011;21561;55.654;37.592;2023-12-22T05:52:32;26.92;;;12.32;;
35442;SDS011;21561;55.654;37.592;2023-12-22T05:54:59;27.08;;;11.57;;
35442;SDS011;21561;55.654;37.592;2023-12-22T05:57:27;25.77;;;12.02;;
35442;SDS011;21561;55.654;37.592;2023-12-22T05:59:54;25.60;;;12.18;;
35442;SDS011;21561;55.654;37.592;2023-12-22T06:02:21;26.30;;;12.15;;
35442;SDS011;21561;55.654;37.592;2023-12-22T06:04:48;25.85;;;11.60;;
35442;SDS011;21561;55.654;37.592;2023-12-22T06:07:15;27.98;;;11.88;;
35442;SDS011;21561;55.654;37.592;2023-12-22T06:09:42;26.20;;;11.63;;
35442;SDS011;21561;55.654;37.592;2023-12-22T06:12:09;26.75;;;11.85;;
35442;SDS011;21561;55.654;37.592;2023-12-22T06:14:39;24.30;;;10.90;;
35442;SDS011;21561;55.654;37.592;2023-12-22T06:17:06;28.33;;;11.40;;
35442;SDS011;21561;55.654;37.592;2023-12-22T06:19:33;25.70;;;11.40;;
35442;SDS011;21561;55.654;37.592;2023-12-22T06:22:02;25.35;;;11.30;;
35442;SDS011;21561;55.654;37.592;2023-12-22T06:24:29;24.42;;;11.07;;
35442;SDS011;21561;55.654;37.592;2023-12-22T06:26:56;23.08;;;10.18;;
35442;SDS011;21561;55.654;37.592;2023-12-22T06:29:23;21.25;;;9.93;;
35442;SDS011;21561;55.654;37.592;2023-12-22T06:31:51;26.92;;;11.18;;
35442;SDS011;21561;55.654;37.592;2023-12-22T06:34:18;22.70;;;9.65;;
35442;SDS011;21561;55.654;37.592;2023-12-22T06:36:45;22.80;;;10.65;;
35442;SDS011;21561;55.654;37.592;2023-12-22T06:39:12;21.60;;;10.02;;
35442;SDS011;21561;55.654;37.592;2023-12-22T06:41:39;21.48;;;9.80;;
35442;SDS011;21561;55.654;37.592;2023-12-22T06:44:06;21.88;;;10.23;;
35442;SDS011;21561;55.654;37.592;2023-12-22T06:46:33;24.75;;;10.88;;
35442;SDS011;21561;55.654;37.592;2023-12-22T06:49:00;21.90;;;8.73;;
35442;SDS011;21561;55.654;37.592;2023-12-22T06:51:30;21.80;;;10.43;;
35442;SDS011;21561;55.654;37.592;2023-12-22T06:53:58;23.15;;;9.88;;
35442;SDS011;21561;55.654;37.592;2023-12-22T06:56:30;24.40;;;11.07;;
35442;SDS011;21561;55.654;37.592;2023-12-22T06:58:58;23.02;;;10.63;;
35442;SDS011;21561;55.654;37.592;2023-12-22T07:01:29;23.50;;;10.38;;
35442;SDS011;21561;55.654;37.592;2023-12-22T07:03:58;23.65;;;10.05;;
35442;SDS011;21561;55.654;37.592;2023-12-22T07:06:29;21.52;;;10.10;;
35442;SDS011;21561;55.654;37.592;2023-12-22T07:11:39;23.08;;;8.88;;
35442;SDS011;21561;55.654;37.592;2023-12-22T07:14:07;22.33;;;9.13;;
35442;SDS011;21561;55.654;37.592;2023-12-22T07:16:37;20.50;;;9.15;;
35442;SDS011;21561;55.654;37.592;2023-12-22T07:19:09;20.45;;;8.68;;
35442;SDS011;21561;55.654;37.592;2023-12-22T07:21:39;21.30;;;9.43;;
35442;SDS011;21561;55.654;37.592;2023-12-22T07:24:10;20.48;;;8.48;;
35442;SDS011;21561;55.654;37.592;2023-12-22T07:26:39;19.83;;;8.52;;
35442;SDS011;21561;55.654;37.592;2023-12-22T07:29:06;19.10;;;8.02;;
35442;SDS011;21561;55.654;37.592;2023-12-22T07:31:34;19.73;;;8.38;;
35442;SDS011;21561;55.654;37.592;2023-12-22T07:34:01;20.27;;;7.88;;
35442;SDS011;21561;55.654;37.592;2023-12-22T07:36:28;17.02;;;6.28;;
35442;SDS011;21561;55.654;37.592;2023-12-22T07:38:55;20.58;;;8.00;;
35442;SDS011;21561;55.654;37.592;2023-12-22T07:41:24;20.80;;;8.52;;
35442;SDS011;21561;55.654;37.592;2023-12-22T07:43:51;20.17;;;8.60;;
35442;SDS011;21561;55.654;37.592;2023-12-22T07:46:18;19.02;;;7.93;;
35442;SDS011;21561;55.654;37.592;2023-12-22T07:48:47;19.38;;;8.07;;
35442;SDS011;21561;55.654;37.592;2023-12-22T07:51:15;18.55;;;7.93;;
35442;SDS011;21561;55.654;37.592;2023-12-22T07:53:42;19.23;;;7.53;;
35442;SDS011;21561;55.654;37.592;2023-12-22T07:56:10;19.10;;;8.18;;
35442;SDS011;21561;55.654;37.592;2023-12-22T07:58:38;18.52;;;7.38;;
35442;SDS011;21561;55.654;37.592;2023-12-22T08:01:06;19.50;;;7.10;;
35442;SDS011;21561;55.654;37.592;2023-12-22T08:03:33;18.30;;;7.13;;
35442;SDS011;21561;55.654;37.592;2023-12-22T08:06:00;18.58;;;7.50;;
35442;SDS011;21561;55.654;37.592;2023-12-22T08:08:27;19.20;;;7.22;;
35442;SDS011;21561;55.654;37.592;2023-12-22T08:10:54;18.17;;;7.32;;
35442;SDS011;21561;55.654;37.592;2023-12-22T08:13:21;17.90;;;7.03;;
35442;SDS011;21561;55.654;37.592;2023-12-22T08:15:48;17.52;;;6.60;;
35442;SDS011;21561;55.654;37.592;2023-12-22T08:18:16;21.13;;;7.57;;
35442;SDS011;21561;55.654;37.592;2023-12-22T08:20:43;20.08;;;7.75;;
35442;SDS011;21561;55.654;37.592;2023-12-22T08:23:13;19.85;;;7.60;;
35442;SDS011;21561;55.654;37.592;2023-12-22T08:25:41;18.65;;;7.63;;
35442;SDS011;21561;55.654;37.592;2023-12-22T08:28:10;20.13;;;7.50;;
35442;SDS011;21561;55.654;37.592;2023-12-22T08:30:40;19.92;;;8.70;;
35442;SDS011;21561;55.654;37.592;2023-12-22T08:33:07;18.65;;;7.55;;
35442;SDS011;21561;55.654;37.592;2023-12-22T08:35:34;19.23;;;7.82;;
35442;SDS011;21561;55.654;37.592;2023-12-22T08:38:01;18.40;;;7.43;;
35442;SDS011;21561;55.654;37.592;2023-12-22T08:40:29;19.05;;;7.82;;
35442;SDS011;21561;55.654;37.592;2023-12-22T08:42:57;18.00;;;7.55;;
35442;SDS011;21561;55.654;37.592;2023-12-22T08:45:28;18.25;;;7.30;;
35442;SDS011;21561;55.654;37.592;2023-12-22T08:47:58;18.48;;;7.25;;
35442;SDS011;21561;55.654;37.592;2023-12-22T08:50:27;19.02;;;7.53;;
35442;SDS011;21561;55.654;37.592;2023-12-22T08:52:53;20.05;;;8.38;;
35442;SDS011;21561;55.654;37.592;2023-12-22T08:55:20;18.90;;;7.88;;
35442;SDS011;21561;55.654;37.592;2023-12-22T08:57:47;20.77;;;8.07;;
35442;SDS011;21561;55.654;37.592;2023-12-22T09:00:25;22.23;;;8.85;;
35442;SDS011;21561;55.654;37.592;2023-12-22T09:02:53;21.65;;;9.15;;
35442;SDS011;21561;55.654;37.592;2023-12-22T09:05:20;21.42;;;9.25;;
35442;SDS011;21561;55.654;37.592;2023-12-22T09:07:48;21.85;;;9.50;;
35442;SDS011;21561;55.654;37.592;2023-12-22T09:10:16;22.55;;;10.65;;
35442;SDS011;21561;55.654;37.592;2023-12-22T09:12:43;27.65;;;11.70;;
35442;SDS011;21561;55.654;37.592;2023-12-22T09:15:10;25.58;;;12.48;;
35442;SDS011;21561;55.654;37.592;2023-12-22T09:17:37;27.98;;;11.65;;
35442;SDS011;21561;55.654;37.592;2023-12-22T09:20:06;28.90;;;13.20;;
35442;SDS011;21561;55.654;37.592;2023-12-22T09:22:34;28.00;;;12.35;;
35442;SDS011;21561;55.654;37.592;2023-12-22T09:25:01;28.48;;;13.52;;
35442;SDS011;21561;55.654;37.592;2023-12-22T09:27:29;28.45;;;13.32;;
35442;SDS011;21561;55.654;37.592;2023-12-22T09:29:57;30.48;;;12.85;;
35442;SDS011;21561;55.654;37.592;2023-12-22T09:32:24;28.63;;;13.15;;
35442;SDS011;21561;55.654;37.592;2023-12-22T09:34:52;26.45;;;12.40;;
35442;SDS011;21561;55.654;37.592;2023-12-22T09:37:19;28.45;;;12.88;;
35442;SDS011;21561;55.654;37.592;2023-12-22T09:39:46;29.83;;;13.02;;
35442;SDS011;21561;55.654;37.592;2023-12-22T09:42:13;27.95;;;13.30;;
35442;SDS011;21561;55.654;37.592;2023-12-22T09:44:42;30.10;;;13.43;;
35442;SDS011;21561;55.654;37.592;2023-12-22T09:47:09;24.38;;;11.80;;
35442;SDS011;21561;55.654;37.592;2023-12-22T09:49:38;29.15;;;12.55;;
35442;SDS011;21561;55.654;37.592;2023-12-22T09:52:08;27.38;;;12.27;;
35442;SDS011;21561;55.654;37.592;2023-12-22T09:54:36;25.77;;;12.32;;
35442;SDS011;21561;55.654;37.592;2023-12-22T09:57:04;26.38;;;13.15;;
35442;SDS011;21561;55.654;37.592;2023-12-22T09:59:57;26.20;;;12.00;;
35442;SDS011;21561;55.654;37.592;2023-12-22T10:02:26;25.98;;;12.15;;
35442;SDS011;21561;55.654;37.592;2023-12-22T10:04:55;25.70;;;11.27;;
35442;SDS011;21561;55.654;37.592;2023-12-22T10:07:22;26.05;;;12.05;;
35442;SDS011;21561;55.654;37.592;2023-12-22T10:09:50;25.83;;;12.05;;
35442;SDS011;21561;55.654;37.592;2023-12-22T10:12:20;24.63;;;11.32;;
35442;SDS011;21561;55.654;37.592;2023-12-22T10:14:48;24.67;;;11.15;;
35442;SDS011;21561;55.654;37.592;2023-12-22T10:17:16;24.63;;;11.25;;
35442;SDS011;21561;55.654;37.592;2023-12-22T10:19:43;25.42;;;11.15;;
35442;SDS011;21561;55.654;37.592;2023-12-22T10:22:10;23.23;;;10.02;;
35442;SDS011;21561;55.654;37.592;2023-12-22T10:24:38;22.98;;;9.32;;
35442;SDS011;21561;55.654;37.592;2023-12-22T10:27:14;22.08;;;9.80;;
35442;SDS011;21561;55.654;37.592;2023-12-22T10:29:49;21.63;;;9.73;;
35442;SDS011;21561;55.654;37.592;2023-12-22T10:32:20;22.05;;;9.68;;
35442;SDS011;21561;55.654;37.592;2023-12-22T10:34:48;23.88;;;10.00;;
35442;SDS011;21561;55.654;37.592;2023-12-22T10:37:19;24.60;;;9.55;;
35442;SDS011;21561;55.654;37.592;2023-12-22T10:39:52;22.25;;;9.05;;
35442;SDS011;21561;55.654;37.592;2023-12-22T10:42:19;21.60;;;9.27;;
35442;SDS011;21561;55.654;37.592;2023-12-22T10:44:46;19.77;;;8.45;;
35442;SDS011;21561;55.654;37.592;2023-12-22T10:47:19;21.48;;;9.48;;
35442;SDS011;21561;55.654;37.592;2023-12-22T10:49:48;19.60;;;8.75;;
35442;SDS011;21561;55.654;37.592;2023-12-22T10:52:16;22.75;;;9.30;;
35442;SDS011;21561;55.654;37.592;2023-12-22T10:54:52;19.60;;;8.18;;
35442;SDS011;21561;55.654;37.592;2023-12-22T10:57:19;19.58;;;8.30;;
35442;SDS011;21561;55.654;37.592;2023-12-22T10:59:47;22.33;;;8.90;;
35442;SDS011;21561;55.654;37.592;2023-12-22T11:02:26;20.67;;;8.60;;
35442;SDS011;21561;55.654;37.592;2023-12-22T11:05:05;22.67;;;8.63;;
35442;SDS011;21561;55.654;37.592;2023-12-22T11:07:34;22.55;;;8.38;;
35442;SDS011;21561;55.654;37.592;2023-12-22T11:10:07;22.75;;;8.98;;
35442;SDS011;21561;55.654;37.592;2023-12-22T11:12:37;21.55;;;8.73;;
35442;SDS011;21561;55.654;37.592;2023-12-22T11:15:05;22.58;;;9.20;;
35442;SDS011;21561;55.654;37.592;2023-12-22T11:17:36;21.05;;;8.50;;
35442;SDS011;21561;55.654;37.592;2023-12-22T11:20:14;18.15;;;8.10;;
35442;SDS011;21561;55.654;37.592;2023-12-22T11:22:42;19.38;;;8.05;;
35442;SDS011;21561;55.654;37.592;2023-12-22T11:25:11;20.67;;;8.13;;
35442;SDS011;21561;55.654;37.592;2023-12-22T11:27:43;21.02;;;8.73;;
35442;SDS011;21561;55.654;37.592;2023-12-22T11:30:12;19.25;;;8.50;;
35442;SDS011;21561;55.654;37.592;2023-12-22T11:32:40;21.65;;;8.77;;
35442;SDS011;21561;55.654;37.592;2023-12-22T11:35:08;19.50;;;8.05;;
35442;SDS011;21561;55.654;37.592;2023-12-22T11:37:36;22.42;;;8.85;;
35442;SDS011;21561;55.654;37.592;2023-12-22T11:40:05;20.83;;;8.40;;
35442;SDS011;21561;55.654;37.592;2023-12-22T11:42:33;19.23;;;7.80;;
35442;SDS011;21561;55.654;37.592;2023-12-22T11:45:05;20.42;;;8.43;;
35442;SDS011;21561;55.654;37.592;2023-12-22T11:47:35;18.75;;;7.93;;
35442;SDS011;21561;55.654;37.592;2023-12-22T11:50:03;17.60;;;7.65;;
35442;SDS011;21561;55.654;37.592;2023-12-22T11:52:35;19.50;;;7.93;;
35442;SDS011;21561;55.654;37.592;2023-12-22T11:55:02;19.77;;;7.63;;
35442;SDS011;21561;55.654;37.592;2023-12-22T11:57:31;19.63;;;7.90;;
35442;SDS011;21561;55.654;37.592;2023-12-22T12:00:05;22.48;;;8.30;;
35442;SDS011;21561;55.654;37.592;2023-12-22T12:02:33;21.67;;;8.00;;
35442;SDS011;21561;55.654;37.592;2023-12-22T12:05:04;18.50;;;7.80;;
35442;SDS011;21561;55.654;37.592;2023-12-22T12:07:46;16.65;;;7.10;;
35442;SDS011;21561;55.654;37.592;2023-12-22T12:15:36;17.38;;;7.00;;
35442;SDS011;21561;55.654;37.592;2023-12-22T12:18:04;17.98;;;6.72;;
35442;SDS011;21561;55.654;37.592;2023-12-22T12:20:34;17.38;;;6.80;;
35442;SDS011;21561;55.654;37.592;2023-12-22T12:23:02;19.02;;;7.00;;
35442;SDS011;21561;55.654;37.592;2023-12-22T12:25:29;21.73;;;8.25;;
35442;SDS011;21561;55.654;37.592;2023-12-22T12:30:33;18.90;;;7.57;;
35442;SDS011;21561;55.654;37.592;2023-12-22T12:33:06;20.83;;;8.50;;
35442;SDS011;21561;55.654;37.592;2023-12-22T12:35:34;18.33;;;7.30;;
35442;SDS011;21561;55.654;37.592;2023-12-22T12:38:08;18.40;;;7.18;;
35442;SDS011;21561;55.654;37.592;2023-12-22T12:40:36;20.00;;;7.45;;
35442;SDS011;21561;55.654;37.592;2023-12-22T12:43:05;19.45;;;7.28;;
35442;SDS011;21561;55.654;37.592;2023-12-22T12:45:33;19.80;;;7.13;;
35442;SDS011;21561;55.654;37.592;2023-12-22T12:48:01;18.63;;;7.13;;
35442;SDS011;21561;55.654;37.592;2023-12-22T12:50:32;21.08;;;8.00;;
35442;SDS011;21561;55.654;37.592;2023-12-22T12:53:00;19.92;;;7.47;;
35442;SDS011;21561;55.654;37.592;2023-12-22T12:55:27;18.58;;;7.32;;
35442;SDS011;21561;55.654;37.592;2023-12-22T12:57:55;19.45;;;7.43;;
35442;SDS011;21561;55.654;37.592;2023-12-22T13:00:26;18.98;;;7.50;;
35442;SDS011;21561;55.654;37.592;2023-12-22T13:02:56;19.02;;;7.57;;
35442;SDS011;21561;55.654;37.592;2023-12-22T13:05:26;19.98;;;7.53;;
35442;SDS011;21561;55.654;37.592;2023-12-22T13:08:08;20.35;;;7.63;;
35442;SDS011;21561;55.654;37.592;2023-12-22T13:10:37;19.42;;;7.53;;
35442;SDS011;21561;55.654;37.592;2023-12-22T13:13:05;18.38;;;6.78;;
35442;SDS011;21561;55.654;37.592;2023-12-22T13:15:33;19.23;;;7.70;;
35442;SDS011;21561;55.654;37.592;2023-12-22T13:18:00;20.17;;;7.00;;
35442;SDS011;21561;55.654;37.592;2023-12-22T13:20:28;22.27;;;8.63;;
35442;SDS011;21561;55.654;37.592;2023-12-22T13:22:55;19.63;;;7.30;;
35442;SDS011;21561;55.654;37.592;2023-12-22T13:25:22;21.55;;;8.18;;
35442;SDS011;21561;55.654;37.592;2023-12-22T13:27:51;21.10;;;7.50;;
35442;SDS011;21561;55.654;37.592;2023-12-22T13:30:34;20.58;;;7.90;;
35442;SDS011;21561;55.654;37.592;2023-12-22T13:33:08;19.20;;;7.50;;
35442;SDS011;21561;55.654;37.592;2023-12-22T13:35:35;19.98;;;8.45;;
35442;SDS011;21561;55.654;37.592;2023-12-22T13:38:08;21.70;;;8.35;;
35442;SDS011;21561;55.654;37.592;2023-12-22T13:40:38;20.25;;;7.80;;
35442;SDS011;21561;55.654;37.592;2023-12-22T13:43:05;22.23;;;9.15;;
35442;SDS011;21561;55.654;37.592;2023-12-22T13:45:34;20.88;;;8.10;;
35442;SDS011;21561;55.654;37.592;2023-12-22T13:48:02;19.67;;;7.90;;
35442;SDS011;21561;55.654;37.592;2023-12-22T13:50:30;20.02;;;8.70;;
35442;SDS011;21561;55.654;37.592;2023-12-22T13:52:57;20.67;;;8.60;;
35442;SDS011;21561;55.654;37.592;2023-12-22T13:55:35;21.23;;;8.30;;
35442;SDS011;21561;55.654;37.592;2023-12-22T13:58:04;20.00;;;8.25;;
35442;SDS011;21561;55.654;37.592;2023-12-22T14:00:31;21.92;;;8.43;;
35442;SDS011;21561;55.654;37.592;2023-12-22T14:03:00;19.67;;;8.25;;
35442;SDS011;21561;55.654;37.592;2023-12-22T14:05:28;21.20;;;8.52;;
35442;SDS011;21561;55.654;37.592;2023-12-22T14:08:00;20.83;;;8.20;;
35442;SDS011;21561;55.654;37.592;2023-12-22T14:10:28;18.35;;;7.78;;
35442;SDS011;21561;55.654;37.592;2023-12-22T14:12:55;21.90;;;8.68;;
35442;SDS011;21561;55.654;37.592;2023-12-22T14:15:22;21.83;;;9.25;;
35442;SDS011;21561;55.654;37.592;2023-12-22T14:17:57;21.73;;;8.32;;
35442;SDS011;21561;55.654;37.592;2023-12-22T14:20:23;20.17;;;7.65;;
35442;SDS011;21561;55.654;37.592;2023-12-22T14:22:51;21.02;;;8.73;;
35442;SDS011;21561;55.654;37.592;2023-12-22T14:25:19;20.98;;;7.90;;
35442;SDS011;21561;55.654;37.592;2023-12-22T14:27:46;21.80;;;8.60;;
35442;SDS011;21561;55.654;37.592;2023-12-22T14:30:13;20.83;;;9.07;;
35442;SDS011;21561;55.654;37.592;2023-12-22T14:32:40;18.98;;;8.02;;
35442;SDS011;21561;55.654;37.592;2023-12-22T14:35:07;21.85;;;8.60;;
35442;SDS011;21561;55.654;37.592;2023-12-22T14:37:34;23.67;;;8.85;;